Atwater, Ohio
Current Conditions -  °F | °C
As of 10:33 PM on Friday 19 Dec 2014 (Local Time) from KPOV Reporting Station
NA  
Wind Chill: 28°   Ceiling: NA
Heat Index: 28°   Visibility: 10mi
Dew Point: 19°   Wind: 3mph
Humidity: 68%   Direction: 360°N
Pressure: 30.26"   Gusts: NA
Location:  41.02°N, 81.16°W
Report Text: KPOV 200333Z AUTO 36003KT 10SM M02/M07 A3026 RMK AO2 T10231075
Loading
Personal Weather Stations






























Interactive Weather Map New forecast layout! Learn more

10-Day Weather Forecast

Advertisements
Track Severe Weather on mobile